Park Rapids, MN

9:03 PM CDT on July 13, 2014 (GMT -0500)
Park Rapids Municipal (KPKD) Elev 1440 ft | 46.90 °N, 95.07 °W | Change Station

Current weather conditions updated 10 minutes ago

Overcast
Overcast
62 °F
Feels Like 62 °F
N
14
Wind Variable Wind from NW

Tomorrow is forecast to be Cooler than today.

Today
High -- | Low -- °F
--% Chance of Precip.
Yesterday
High -- | Low -- °F
Precip. -- in
5:38 AM 9:12 PM
Waning Gibbous, 96% visible
Pressure 29.92 in
Visibility 10.0 miles
Clouds Overcast 8500 ft
Dew Point 46 °F
Humidity 56%
Rainfall 0.00 in
Snow Depth Not available.
UV 0 out of 12
Pollen 4.50 out of 12
Air Quality Not available.
Flu Activity Sporadic
METAR KPKD 140153Z AUTO 31012KT 10SM OVC085 17/08 A2991 RMK AO2 RAE04 SLP130 P0000 T01670078 TSNO

More Conditions Fewer Conditions

Pressure 29.92 in
Visibility 10.0 miles
Clouds Overcast 8500 ft
Dew Point 46 °F
Humidity 56%
Rainfall 0.00 in
Snow Depth Not available.
UV 0 out of 12
Pollen 4.50 out of 12
Air Quality Not available.
Flu Activity Sporadic
METAR KPKD 140153Z AUTO 31012KT 10SM OVC085 17/08 A2991 RMK AO2 RAE04 SLP130 P0000 T01670078 TSNO

More Conditions Fewer Conditions

10-Day Weather Forecast

Almanac

Astronomy

Jul. 13, 2014 Rise Set
Actual Time 5:38 AM CDT 9:12 PM CDT
Civil Twilight 5:00 AM CDT 9:50 PM CDT
Nautical Twilight 4:09 AM CDT 10:41 PM CDT
Astronomical Twilight 3:01 AM CDT 11:49 PM CDT
Moon 9:49 PM CDT (7/13) 7:19 AM CDT (7/13)
Length of Visible Light 16h 49m
Length of Day
15h 33m
Tomorrow will be 1m 42s shorter.
Waning Gibbous, 96% of the Moon is Illuminated
Today
Waning Gibbous
Jul 18
Last Quarter
Jul 26
New
Aug 3
First Quarter
Aug 10
Full

Today's Extremes

State Highs State Lows

Community

WunderPhotos

Upload Photos

1,733,522 photos uploaded!

Nearby

Snow Depth

Station Depth Elevation
No new snow has been reported.

Earthquake Activity

City Distance Mag. Time & Date
No recent earthquake activity has been reported nearby.
Minimum magnitude displayed is 2.5.

Coastal Water Temperatures

Place Temperature
No Stations Reporting

Nearby Weather Stations

Station Location Temp. Dew Point Humidity Wind Precip. Elev Updated Type
RAWS BADOURA MN, Nevis, MN 64 °F 47 °F 53% WNW  at  10 mph 0.00 in / hr 1475 ft 8:06 PM CDT MADIS
Bad Medicine Lake, MN, Ponsford, MN 59.3 °F 51 °F 75% NNW  at  6.0 mph 0.00 in / hr 1630 ft 8:50 PM CDT Normal
RAWS ITASCA MN, Lake George, MN 59 °F 51 °F 74% NNW  at  6 mph 0.00 in / hr 1479 ft 8:07 PM CDT MADIS

Show More Stations Show Fewer Stations